createdAt,value
2019-04-28T00:24:01.655Z,13.83
2019-04-28T00:26:35.662Z,14.35
2019-04-28T00:29:11.103Z,15.48
2019-04-28T00:31:44.050Z,14.23
2019-04-28T00:34:18.590Z,13.78
2019-04-28T00:36:52.467Z,14.78
2019-04-28T00:39:25.405Z,13.65
2019-04-28T00:41:58.353Z,12.40
2019-04-28T00:44:31.927Z,13.35
2019-04-28T00:47:05.631Z,12.68
2019-04-28T00:49:41.787Z,13.00
2019-04-28T00:52:14.619Z,12.58
2019-04-28T00:54:52.339Z,12.78
2019-04-28T00:57:24.861Z,13.95
2019-04-28T00:59:59.044Z,13.62
2019-04-28T01:02:33.251Z,12.88
2019-04-28T01:05:07.027Z,17.12
2019-04-28T01:07:41.622Z,19.75
2019-04-28T01:10:15.640Z,13.83
2019-04-28T01:12:50.978Z,12.10
2019-04-28T01:15:25.372Z,12.03
2019-04-28T01:17:58.234Z,12.35
2019-04-28T01:20:30.415Z,12.10
2019-04-28T01:23:03.078Z,11.65
2019-04-28T01:25:35.587Z,12.13
2019-04-28T01:28:15.909Z,11.20
2019-04-28T01:30:50.099Z,11.45
2019-04-28T01:33:25.501Z,12.37
2019-04-28T01:36:00.581Z,11.28
2019-04-28T01:38:33.493Z,10.90
2019-04-28T01:41:07.262Z,11.28
2019-04-28T01:43:41.743Z,11.75
2019-04-28T01:46:16.181Z,11.65
2019-04-28T01:48:49.816Z,11.70
2019-04-28T01:51:22.305Z,12.35
2019-04-28T01:53:54.819Z,10.65
2019-04-28T01:56:27.819Z,10.72
2019-04-28T01:59:00.358Z,11.57
2019-04-28T02:01:37.283Z,11.85
2019-04-28T02:04:10.164Z,11.05
2019-04-28T02:06:42.280Z,11.68
2019-04-28T02:09:16.542Z,10.85
2019-04-28T02:11:50.368Z,11.30
2019-04-28T02:14:22.912Z,11.65
2019-04-28T02:16:56.549Z,12.33
2019-04-28T02:19:32.921Z,11.73
2019-04-28T02:22:05.906Z,11.95
2019-04-28T02:24:40.512Z,12.15
2019-04-28T02:27:13.454Z,12.43
2019-04-28T02:29:46.128Z,12.05
2019-04-28T02:32:23.755Z,9.63
2019-04-28T02:34:53.879Z,10.05
2019-04-28T02:37:26.640Z,9.80
2019-04-28T02:40:03.410Z,8.85
2019-04-28T02:42:36.862Z,10.18
2019-04-28T02:45:11.706Z,9.70
2019-04-28T02:47:45.990Z,9.48
2019-04-28T02:50:21.233Z,9.30
2019-04-28T02:53:02.079Z,9.25
2019-04-28T02:55:35.414Z,8.78
2019-04-28T02:58:11.351Z,9.63
2019-04-28T03:01:00.983Z,8.15
2019-04-28T03:03:21.176Z,9.75
2019-04-28T03:05:53.781Z,8.70
2019-04-28T03:08:27.325Z,9.38
2019-04-28T03:11:04.994Z,8.95
2019-04-28T03:13:41.227Z,9.10
2019-04-28T03:16:17.452Z,9.33
2019-04-28T03:18:51.454Z,8.60
2019-04-28T03:21:23.982Z,9.30
2019-04-28T03:23:56.781Z,9.83
2019-04-28T03:26:32.016Z,9.85
2019-04-28T03:29:05.846Z,9.68
2019-04-28T03:32:03.754Z,8.55
2019-04-28T03:34:14.253Z,8.53
2019-04-28T03:36:46.375Z,8.90
2019-04-28T03:39:20.566Z,8.05
2019-04-28T03:41:54.610Z,10.08
2019-04-28T03:44:30.924Z,9.45
2019-04-28T03:47:05.576Z,9.88
2019-04-28T03:49:42.742Z,10.43
2019-04-28T03:52:13.893Z,9.30
2019-04-28T03:54:52.155Z,7.87
2019-04-28T03:57:24.408Z,8.70
2019-04-28T03:59:56.360Z,8.08
2019-04-28T04:02:31.190Z,7.78
2019-04-28T04:05:04.805Z,7.53
2019-04-28T04:07:37.426Z,7.30
2019-04-28T04:10:13.498Z,7.37
2019-04-28T04:12:45.753Z,7.95
2019-04-28T04:15:21.742Z,7.67
2019-04-28T04:17:57.743Z,7.58
2019-04-28T04:20:33.276Z,7.72
2019-04-28T04:23:07.014Z,7.33
2019-04-28T04:25:41.582Z,6.50
2019-04-28T04:28:14.658Z,6.87
2019-04-28T04:30:47.457Z,7.40
2019-04-28T04:33:21.478Z,7.22
2019-04-28T04:35:54.231Z,7.33
2019-04-28T04:38:27.397Z,7.03
2019-04-28T04:41:01.561Z,7.40
2019-04-28T04:43:34.660Z,7.22
2019-04-28T04:46:10.708Z,6.95
2019-04-28T04:48:44.970Z,7.80
2019-04-28T04:51:17.936Z,8.03
2019-04-28T04:53:51.438Z,7.42
2019-04-28T04:56:24.918Z,6.75
2019-04-28T04:59:02.176Z,6.35
2019-04-28T05:01:32.889Z,5.90
2019-04-28T05:04:09.579Z,6.05
2019-04-28T05:06:42.643Z,6.92
2019-04-28T05:09:15.986Z,5.78
2019-04-28T05:11:50.023Z,7.75
2019-04-28T05:14:24.238Z,7.08
2019-04-28T05:16:57.046Z,6.78
2019-04-28T05:19:29.865Z,5.80
2019-04-28T05:22:02.858Z,5.53
2019-04-28T05:24:36.876Z,5.87
2019-04-28T05:27:10.897Z,6.03
2019-04-28T05:29:44.747Z,6.47
2019-04-28T05:32:20.429Z,7.15
2019-04-28T05:34:53.924Z,6.83
2019-04-28T05:37:27.663Z,7.03
2019-04-28T05:40:00.897Z,6.72
2019-04-28T05:42:36.527Z,7.42
2019-04-28T05:45:10.401Z,7.53
2019-04-28T05:47:44.558Z,7.47
2019-04-28T05:50:25.851Z,8.25
2019-04-28T05:53:06.628Z,7.33
2019-04-28T05:55:45.341Z,7.30
2019-04-28T05:58:21.108Z,7.35
2019-04-28T06:00:55.155Z,8.00
2019-04-28T06:03:30.227Z,7.08
2019-04-28T06:06:03.194Z,7.35
2019-04-28T06:08:38.544Z,6.90
2019-04-28T06:11:12.047Z,7.00
2019-04-28T06:13:45.549Z,7.17
2019-04-28T06:16:19.589Z,7.35
2019-04-28T06:18:52.400Z,7.85
2019-04-28T06:21:24.820Z,7.03
2019-04-28T06:23:58.335Z,7.62
2019-04-28T06:26:31.868Z,7.33
2019-04-28T06:29:04.598Z,6.97
2019-04-28T06:37:45.365Z,6.80
2019-04-28T06:40:17.772Z,7.28
2019-04-28T06:42:50.449Z,6.28
2019-04-28T06:45:23.789Z,6.70
2019-04-28T06:47:56.919Z,6.37
2019-04-28T06:50:29.309Z,5.78
2019-04-28T06:53:03.021Z,7.22
2019-04-28T06:55:35.633Z,7.17
2019-04-28T06:58:09.503Z,5.97
2019-04-28T07:00:42.676Z,5.70
2019-04-28T07:03:23.066Z,5.33
2019-04-28T07:05:49.391Z,6.40
2019-04-28T07:08:27.104Z,5.90
2019-04-28T07:10:59.526Z,5.53
2019-04-28T07:13:34.512Z,6.20
2019-04-28T07:16:06.519Z,5.55
2019-04-28T07:18:39.607Z,5.15
2019-04-28T07:21:13.895Z,5.55
2019-04-28T07:23:48.714Z,5.42
2019-04-28T07:26:22.250Z,5.87
2019-04-28T07:28:54.085Z,6.05
2019-04-28T07:31:26.483Z,5.80
2019-04-28T07:33:58.139Z,5.78
2019-04-28T07:36:30.052Z,5.72
2019-04-28T07:39:03.484Z,6.42
2019-04-28T07:41:38.017Z,7.35
2019-04-28T07:44:13.337Z,8.55
2019-04-28T07:46:46.337Z,8.53
2019-04-28T07:49:18.521Z,7.05
2019-04-28T07:51:52.401Z,6.62
2019-04-28T07:54:28.468Z,8.00
2019-04-28T07:57:02.020Z,11.65
2019-04-28T07:59:41.043Z,11.05
2019-04-28T08:02:13.874Z,9.78
2019-04-28T08:04:46.719Z,14.55
2019-04-28T08:07:19.632Z,11.30
2019-04-28T08:09:52.053Z,8.68
2019-04-28T08:12:25.115Z,9.13
2019-04-28T08:14:58.712Z,7.10
2019-04-28T08:17:32.356Z,7.55
2019-04-28T08:20:07.218Z,7.80
2019-04-28T08:22:42.388Z,8.25
2019-04-28T08:25:16.050Z,8.25
2019-04-28T08:27:49.820Z,7.53
2019-04-28T08:30:25.529Z,7.75
2019-04-28T08:32:59.312Z,7.00
2019-04-28T08:35:33.236Z,7.05
2019-04-28T08:38:05.644Z,8.93
2019-04-28T08:40:39.896Z,9.75
2019-04-28T08:43:12.894Z,8.38
2019-04-28T08:45:45.979Z,7.22
2019-04-28T08:48:18.829Z,8.28
2019-04-28T08:50:51.259Z,7.30
2019-04-28T08:53:24.522Z,11.08
2019-04-28T08:55:57.572Z,7.83
2019-04-28T08:58:45.249Z,7.75
2019-04-28T09:01:20.853Z,7.12
2019-04-28T09:03:54.068Z,8.25
2019-04-28T09:06:26.424Z,7.12
2019-04-28T09:08:58.094Z,8.20
2019-04-28T09:11:30.394Z,7.37
2019-04-28T09:14:03.039Z,6.87
2019-04-28T09:16:35.672Z,7.12
2019-04-28T09:19:10.454Z,7.58
2019-04-28T09:21:46.066Z,6.55
2019-04-28T09:24:20.341Z,7.08
2019-04-28T09:26:53.463Z,8.18
2019-04-28T09:29:33.125Z,7.97
2019-04-28T09:32:05.897Z,7.60
2019-04-28T09:34:38.283Z,7.80
2019-04-28T09:37:11.189Z,8.20
2019-04-28T09:39:44.848Z,7.55
2019-04-28T09:42:26.063Z,8.05
2019-04-28T09:45:01.248Z,9.65
2019-04-28T09:47:33.344Z,8.38
2019-04-28T09:50:06.608Z,7.97
2019-04-28T09:52:39.749Z,8.18
2019-04-28T09:55:14.848Z,9.23
2019-04-28T09:57:47.823Z,9.33
2019-04-28T10:00:21.832Z,8.08
2019-04-28T10:02:55.564Z,8.45
2019-04-28T10:05:30.368Z,7.70
2019-04-28T10:08:03.591Z,8.05
2019-04-28T10:10:36.335Z,7.20
2019-04-28T10:13:08.841Z,7.10
2019-04-28T10:15:42.774Z,7.42
2019-04-28T10:18:17.856Z,11.78
2019-04-28T10:20:54.561Z,9.85
2019-04-28T10:23:26.693Z,7.97
2019-04-28T10:25:58.701Z,7.45
2019-04-28T10:28:30.971Z,7.75
2019-04-28T10:31:05.865Z,8.48
2019-04-28T10:33:39.631Z,7.50
2019-04-28T10:36:16.285Z,8.80
2019-04-28T10:38:51.385Z,8.83
2019-04-28T10:41:27.228Z,7.65
2019-04-28T10:44:01.570Z,9.38
2019-04-28T10:46:34.531Z,9.38
2019-04-28T10:49:07.917Z,9.58
2019-04-28T10:51:40.833Z,8.20
2019-04-28T10:54:13.521Z,7.20
2019-04-28T10:56:46.759Z,6.95
2019-04-28T10:59:19.225Z,7.28
2019-04-28T11:01:52.205Z,7.80
2019-04-28T11:09:52.121Z,7.30
2019-04-28T11:12:25.976Z,8.10
2019-04-28T11:14:59.746Z,7.55
2019-04-28T11:17:32.479Z,6.75
2019-04-28T11:20:05.573Z,7.35
2019-04-28T11:22:38.389Z,6.25
2019-04-28T11:25:12.337Z,6.58
2019-04-28T11:27:46.080Z,6.40
2019-04-28T11:30:29.798Z,6.28
2019-04-28T11:33:04.222Z,5.65
2019-04-28T11:35:39.847Z,5.17
2019-04-28T11:38:14.382Z,6.30
2019-04-28T11:40:47.020Z,5.47
2019-04-28T11:43:19.951Z,4.97
2019-04-28T11:45:53.346Z,5.03
2019-04-28T11:48:25.868Z,4.65
2019-04-28T11:50:58.235Z,5.05
2019-04-28T11:53:31.188Z,5.10
2019-04-28T11:56:04.352Z,7.60
2019-04-28T11:58:37.114Z,35.20
2019-04-28T12:01:14.594Z,80.77
2019-04-28T12:03:48.134Z,35.40
2019-04-28T12:06:20.706Z,12.15
2019-04-28T12:08:55.580Z,7.20
2019-04-28T12:11:30.188Z,9.43
2019-04-28T12:14:04.305Z,6.45
2019-04-28T12:16:42.371Z,5.40
2019-04-28T12:19:16.492Z,4.97
2019-04-28T12:21:49.226Z,5.42
2019-04-28T12:24:22.689Z,5.62
2019-04-28T12:26:55.128Z,5.92
2019-04-28T12:29:28.388Z,6.10
2019-04-28T12:32:08.783Z,5.90
2019-04-28T12:34:41.931Z,6.80
2019-04-28T12:37:14.286Z,7.10
2019-04-28T12:39:48.035Z,6.87
2019-04-28T12:42:23.461Z,5.50
2019-04-28T12:44:57.279Z,6.15
2019-04-28T12:47:30.145Z,7.00
2019-04-28T12:50:04.213Z,5.53
2019-04-28T12:52:36.574Z,4.85
2019-04-28T12:55:09.177Z,5.50
2019-04-28T12:57:42.591Z,7.47
2019-04-28T13:00:18.160Z,7.75
2019-04-28T13:02:53.219Z,8.65
2019-04-28T13:05:28.957Z,7.47
2019-04-28T13:08:01.151Z,6.47
2019-04-28T13:10:34.639Z,7.20
2019-04-28T13:13:14.852Z,6.65
2019-04-28T13:15:48.506Z,6.20
2019-04-28T13:18:21.108Z,6.00
2019-04-28T13:20:53.301Z,6.35
2019-04-28T13:23:26.761Z,7.00
2019-04-28T13:25:59.970Z,6.55
2019-04-28T13:28:34.401Z,6.30
2019-04-28T13:31:07.566Z,5.58
2019-04-28T13:33:55.739Z,5.83
2019-04-28T13:36:21.247Z,6.55
2019-04-28T13:38:53.595Z,6.55
2019-04-28T13:41:25.456Z,6.22
2019-04-28T13:43:58.380Z,6.40
2019-04-28T13:46:30.639Z,6.37
2019-04-28T13:49:05.165Z,5.83
2019-04-28T13:51:41.546Z,5.75
2019-04-28T13:54:20.857Z,5.80
2019-04-28T13:56:54.037Z,5.67
2019-04-28T13:59:26.765Z,5.97
2019-04-28T14:02:01.277Z,5.53
2019-04-28T14:04:34.995Z,5.65
2019-04-28T14:07:06.961Z,6.80
2019-04-28T14:09:39.977Z,6.62
2019-04-28T14:12:16.410Z,6.30
2019-04-28T14:14:52.250Z,6.00
2019-04-28T14:32:38.806Z,6.75
2019-04-28T14:35:11.128Z,7.28
2019-04-28T14:37:43.616Z,7.47
2019-04-28T14:40:18.411Z,7.50
2019-04-28T14:42:51.029Z,7.30
2019-04-28T14:45:24.063Z,7.28
2019-04-28T14:47:58.804Z,6.87
2019-04-28T14:50:31.705Z,6.83
2019-04-28T14:53:08.510Z,6.78
2019-04-28T14:55:42.867Z,7.03
2019-04-28T14:58:16.566Z,6.67
2019-04-28T15:00:50.663Z,6.95
2019-04-28T15:03:25.266Z,7.03
2019-04-28T15:05:57.666Z,6.83
2019-04-28T15:08:37.901Z,6.78
2019-04-28T15:11:13.304Z,6.80
2019-04-28T15:13:47.701Z,7.22
2019-04-28T15:16:20.576Z,6.70
2019-04-28T15:18:55.023Z,7.12
2019-04-28T15:21:27.283Z,7.58
2019-04-28T15:23:59.711Z,8.05
2019-04-28T15:26:32.039Z,7.58
2019-04-28T15:29:04.720Z,6.95
2019-04-28T15:31:37.320Z,6.42
2019-04-28T15:34:09.706Z,6.33
2019-04-28T15:37:25.134Z,5.90
2019-04-28T15:43:28.144Z,5.65
2019-04-28T15:46:02.013Z,6.20
2019-04-28T15:48:40.339Z,6.22
2019-04-28T15:51:15.928Z,6.40
2019-04-28T15:53:49.939Z,6.53
2019-04-28T15:56:25.654Z,5.62
2019-04-28T15:58:57.774Z,5.95
2019-04-28T16:01:31.532Z,5.90
2019-04-28T16:04:07.585Z,6.42
2019-04-28T16:06:40.929Z,6.35
2019-04-28T16:09:20.972Z,5.80
2019-04-28T16:11:55.408Z,5.62
2019-04-28T16:14:36.163Z,6.35
2019-04-28T16:20:06.606Z,6.10
2019-04-28T16:22:47.447Z,6.50
2019-04-28T16:25:21.059Z,6.97
2019-04-28T16:27:56.285Z,7.03
2019-04-28T16:30:29.383Z,6.95
2019-04-28T16:33:02.441Z,6.30
2019-04-28T16:35:36.621Z,6.42
2019-04-28T16:38:20.898Z,6.40
2019-04-28T16:40:55.511Z,6.80
2019-04-28T16:43:29.386Z,7.58
2019-04-28T16:46:03.604Z,6.17
2019-04-28T16:48:36.579Z,6.53
2019-04-28T16:51:14.687Z,6.85
2019-04-28T16:53:48.167Z,6.78
2019-04-28T16:56:23.686Z,7.95
2019-04-28T16:58:59.939Z,7.53
2019-04-28T17:01:34.809Z,7.75
2019-04-28T17:04:08.244Z,7.60
2019-04-28T17:06:42.636Z,8.03
2019-04-28T17:09:16.447Z,8.65
2019-04-28T17:11:53.050Z,8.83
2019-04-28T17:14:26.333Z,9.15
2019-04-28T17:17:01.284Z,9.38
2019-04-28T17:19:34.398Z,8.40
2019-04-28T17:22:08.465Z,7.83
2019-04-28T17:24:42.405Z,7.55
2019-04-28T17:27:16.555Z,7.25
2019-04-28T17:29:51.269Z,7.05
2019-04-28T17:32:24.510Z,6.50
2019-04-28T17:34:58.443Z,6.92
2019-04-28T17:37:31.515Z,6.87
2019-04-28T17:40:04.917Z,7.67
2019-04-28T17:42:39.425Z,6.58
2019-04-28T17:45:13.709Z,7.25
2019-04-28T17:47:54.148Z,6.92
2019-04-28T17:50:28.800Z,6.78
2019-04-28T17:53:01.680Z,7.03
2019-04-28T17:55:36.323Z,6.40
2019-04-28T17:58:09.951Z,7.03
2019-04-28T18:00:43.955Z,7.35
2019-04-28T18:03:18.392Z,7.97
2019-04-28T18:05:52.332Z,7.10
2019-04-28T18:08:25.609Z,7.70
2019-04-28T18:10:58.346Z,8.00
2019-04-28T18:13:30.967Z,7.85
2019-04-28T18:16:07.541Z,7.12
2019-04-28T18:18:41.638Z,8.00
2019-04-28T18:21:18.173Z,7.97
2019-04-28T18:24:00.313Z,7.85
2019-04-28T18:26:33.719Z,7.15
2019-04-28T18:29:10.896Z,7.80
2019-04-28T18:31:45.553Z,6.67
2019-04-28T18:34:20.079Z,7.67
2019-04-28T18:36:54.002Z,7.37
2019-04-28T18:39:28.385Z,6.70
2019-04-28T18:42:03.101Z,7.20
2019-04-28T18:44:36.967Z,7.25
2019-04-28T18:47:09.917Z,7.62
2019-04-28T18:49:49.975Z,8.00
2019-04-28T18:52:28.581Z,7.33
2019-04-28T18:55:01.267Z,7.90
2019-04-28T18:57:34.283Z,7.20
2019-04-28T19:00:08.713Z,7.97
2019-04-28T19:02:43.511Z,8.20
2019-04-28T19:05:17.018Z,7.20
2019-04-28T19:07:57.786Z,7.97
2019-04-28T19:10:36.560Z,7.70
2019-04-28T19:13:17.727Z,6.75
2019-04-28T19:15:51.792Z,7.65
2019-04-28T19:18:26.907Z,7.33
2019-04-28T19:21:00.779Z,7.37
2019-04-28T19:23:33.619Z,6.80
2019-04-28T19:26:15.952Z,6.83
2019-04-28T19:28:52.285Z,6.70
2019-04-28T19:31:26.635Z,7.47
2019-04-28T19:33:59.836Z,7.65
2019-04-28T19:36:33.196Z,6.35
2019-04-28T19:39:09.862Z,7.50
2019-04-28T19:41:45.198Z,7.05
2019-04-28T19:44:18.205Z,7.25
2019-04-28T19:46:50.596Z,7.60
2019-04-28T19:49:29.827Z,7.00
2019-04-28T19:52:07.948Z,6.92
2019-04-28T19:54:50.235Z,6.78
2019-04-28T19:57:24.190Z,6.20
2019-04-28T19:59:58.201Z,6.83
2019-04-28T20:02:40.974Z,6.10
2019-04-28T20:05:14.080Z,6.15
2019-04-28T20:07:49.893Z,6.28
2019-04-28T20:10:29.887Z,5.95
2019-04-28T20:13:02.856Z,6.67
2019-04-28T20:15:34.921Z,6.87
2019-04-28T20:18:08.320Z,6.90
2019-04-28T20:20:41.366Z,5.87
2019-04-28T20:23:20.668Z,6.92
2019-04-28T20:25:54.513Z,7.10
2019-04-28T20:28:33.685Z,7.78
2019-04-28T20:31:05.994Z,7.78
2019-04-28T20:33:46.645Z,6.08
2019-04-28T20:36:20.137Z,7.78
2019-04-28T20:38:53.836Z,6.58
2019-04-28T20:41:29.595Z,7.30
2019-04-28T20:44:06.790Z,6.20
2019-04-28T20:46:46.883Z,8.33
2019-04-28T20:49:19.642Z,6.28
2019-04-28T20:51:52.621Z,9.60
2019-04-28T20:54:25.272Z,10.53
2019-04-28T20:57:03.959Z,7.17
2019-04-28T20:59:39.115Z,10.70
2019-04-28T21:02:13.012Z,7.42
2019-04-28T21:04:46.546Z,10.82
2019-04-28T21:07:20.078Z,8.95
2019-04-28T21:09:52.811Z,11.05
2019-04-28T21:12:30.210Z,10.10
2019-04-28T21:15:03.216Z,10.23
2019-04-28T21:17:39.385Z,22.52
2019-04-28T21:20:13.682Z,12.90
2019-04-28T21:22:53.252Z,20.60
2019-04-28T21:25:25.889Z,17.17
2019-04-28T21:28:06.984Z,25.00
2019-04-28T21:30:42.552Z,19.52
2019-04-28T21:33:16.717Z,21.07
2019-04-28T21:35:49.216Z,47.85
2019-04-28T21:38:23.131Z,59.05
2019-04-28T21:40:56.824Z,81.55
2019-04-28T21:43:38.649Z,38.98
2019-04-28T21:46:12.774Z,74.60
2019-04-28T21:48:53.797Z,55.28
2019-04-28T21:51:38.102Z,59.20
2019-04-28T21:54:11.036Z,49.83
2019-04-28T21:56:44.054Z,50.52
2019-04-28T21:59:18.081Z,42.17
2019-04-28T22:01:50.702Z,40.60
2019-04-28T22:04:24.028Z,40.52
2019-04-28T22:06:56.858Z,41.80
2019-04-28T22:09:36.910Z,36.15
2019-04-28T22:12:11.242Z,25.48
2019-04-28T22:14:43.726Z,29.27
2019-04-28T22:17:22.721Z,22.07
2019-04-28T22:19:55.479Z,21.60
2019-04-28T22:22:28.206Z,24.60
2019-04-28T22:25:01.987Z,25.55
2019-04-28T22:27:37.740Z,27.58
2019-04-28T22:30:11.985Z,42.85
2019-04-28T22:32:44.224Z,109.25
